Time;durP1;ratioP1;P1;durP2;ratioP2;P2;SDS_P1;SDS_P2;PMS_P1;PMS_P2;Temp;Humidity;BMP_temperature;BMP_pressure;BME280_temperature;BME280_humidity;BME280_pressure;Samples;Min_cycle;Max_cycle;Signal;HPM_P1;HPM_P2
2021/07/12 00:02:24;;;;;;;4.45;2.60;;;;;;;;;;4999118;28;20107;-81
2021/07/12 00:04:50;;;;;;;3.17;2.35;;;;;;;;;;4999275;28;20056;-81
2021/07/12 00:07:15;;;;;;;3.20;2.20;;;;;;;;;;4999416;28;20061;-82
2021/07/12 00:09:41;;;;;;;4.22;1.98;;;;;;;;;;4997359;28;20087;-81
2021/07/12 00:12:06;;;;;;;3.22;2.05;;;;;;;;;;5012520;28;20042;-81
2021/07/12 00:14:32;;;;;;;3.95;2.40;;;;;;;;;;4996131;28;20033;-81
2021/07/12 00:16:57;;;;;;;2.97;1.98;;;;;;;;;;4995612;28;20040;-81
2021/07/12 00:19:23;;;;;;;3.40;1.70;;;;;;;;;;4995662;28;20239;-81
2021/07/12 00:21:48;;;;;;;4.47;2.15;;;;;;;;;;5012297;28;20046;-81
2021/07/12 00:24:14;;;;;;;3.67;2.70;;;;;;;;;;4995270;28;20089;-82
2021/07/12 00:26:39;;;;;;;3.22;2.15;;;;;;;;;;5015157;28;20037;-82
2021/07/12 00:29:05;;;;;;;2.65;2.08;;;;;;;;;;4982921;28;20030;-81
2021/07/12 00:31:30;;;;;;;2.63;1.92;;;;;;;;;;4998382;28;20124;-81
2021/07/12 00:33:56;;;;;;;3.45;2.17;;;;;;;;;;4998749;28;20029;-81
2021/07/12 00:36:21;;;;;;;2.97;2.10;;;;;;;;;;4998591;28;20033;-81
2021/07/12 00:38:47;;;;;;;2.40;1.70;;;;;;;;;;4981869;28;20204;-81
2021/07/12 00:41:12;;;;;;;3.00;2.10;;;;;;;;;;4998397;28;20028;-82
2021/07/12 00:43:39;;;;;;;3.80;1.83;;;;;;;;;;4998825;28;20037;-82
2021/07/12 00:46:08;;;;;;;3.10;1.77;;;;;;;;;;4982414;28;20032;-81
2021/07/12 00:48:34;;;;;;;3.03;1.65;;;;;;;;;;4998695;28;20123;-81
2021/07/12 00:51:00;;;;;;;2.92;1.73;;;;;;;;;;5010547;28;20396;-81
2021/07/12 00:53:25;;;;;;;3.45;1.98;;;;;;;;;;4994915;28;20069;-81
2021/07/12 00:55:51;;;;;;;2.40;1.63;;;;;;;;;;5011533;28;20084;-81
2021/07/12 00:58:25;;;;;;;3.10;2.20;;;;;;;;;;4995184;28;20040;-81
2021/07/12 01:00:55;;;;;;;3.30;2.00;;;;;;;;;;5011068;28;20073;-82
2021/07/12 01:03:20;;;;;;;2.97;1.70;;;;;;;;;;5014403;28;20030;-82
2021/07/12 01:05:46;;;;;;;2.95;2.03;;;;;;;;;;4981317;28;20538;-82
2021/07/12 01:08:11;;;;;;;2.50;1.75;;;;;;;;;;4978227;28;20074;-81
2021/07/12 01:10:37;;;;;;;2.88;1.83;;;;;;;;;;4978386;28;20030;-82
2021/07/12 01:13:09;;;;;;;3.00;1.80;;;;;;;;;;4978927;28;20068;-81
2021/07/12 01:15:38;;;;;;;2.58;1.67;;;;;;;;;;5011140;28;20095;-82
2021/07/12 01:18:23;;;;;;;3.92;1.90;;;;;;;;;;4978691;28;20081;-81
2021/07/12 01:21:06;;;;;;;3.78;1.75;;;;;;;;;;4994478;28;20400;-81
2021/07/12 01:23:50;;;;;;;;;;;;;;;;;;5011323;28;20080;-83
2021/07/12 01:26:51;;;;;;;3.55;2.50;;;;;;;;;;5043346;28;19970;-83
2021/07/12 01:29:44;;;;;;;2.90;1.90;;;;;;;;;;5014343;28;20065;-83
2021/07/12 01:32:33;;;;;;;3.15;2.22;;;;;;;;;;5013966;28;20029;-83
2021/07/12 01:35:24;;;;;;;3.03;2.10;;;;;;;;;;5030822;28;20499;-83
2021/07/12 01:38:29;;;;;;;3.47;1.90;;;;;;;;;;5030283;28;20064;-83
2021/07/12 01:40:57;;;;;;;3.03;1.90;;;;;;;;;;5012956;28;20411;-83
2021/07/12 01:43:29;;;;;;;3.92;2.00;;;;;;;;;;4996560;28;20052;-83
2021/07/12 01:46:11;;;;;;;3.37;2.20;;;;;;;;;;5022654;28;20076;-83
2021/07/12 01:49:13;;;;;;;3.63;1.98;;;;;;;;;;4985766;28;20049;-83
2021/07/12 01:52:00;;;;;;;4.45;1.75;;;;;;;;;;5034160;28;20113;-83
2021/07/12 01:54:30;;;;;;;2.55;2.00;;;;;;;;;;5033484;28;20034;-84
2021/07/12 01:57:00;;;;;;;2.88;1.63;;;;;;;;;;5001289;28;20038;-83
2021/07/12 01:59:53;;;;;;;2.60;1.65;;;;;;;;;;5000619;28;20026;-83
2021/07/12 02:02:19;;;;;;;3.05;1.63;;;;;;;;;;5008298;28;20037;-83
2021/07/12 02:04:45;;;;;;;3.47;1.90;;;;;;;;;;5000306;28;20044;-83
2021/07/12 02:07:13;;;;;;;3.45;1.73;;;;;;;;;;5001118;28;20029;-83
2021/07/12 02:09:39;;;;;;;2.90;1.60;;;;;;;;;;5000742;28;20030;-84
2021/07/12 02:12:05;;;;;;;2.78;1.48;;;;;;;;;;4984919;28;20053;-83
2021/07/12 02:14:32;;;;;;;2.80;2.13;;;;;;;;;;5000577;28;20045;-84
2021/07/12 02:16:58;;;;;;;2.50;1.60;;;;;;;;;;5000898;28;20120;-83
2021/07/12 02:19:24;;;;;;;3.78;1.98;;;;;;;;;;5000437;28;20860;-83
2021/07/12 02:21:51;;;;;;;2.60;1.38;;;;;;;;;;5000922;28;20037;-82
2021/07/12 02:24:17;;;;;;;2.10;1.67;;;;;;;;;;5000685;28;20518;-83
2021/07/12 02:26:44;;;;;;;2.47;1.63;;;;;;;;;;5004012;28;20033;-84
2021/07/12 02:29:12;;;;;;;2.95;1.90;;;;;;;;;;5004378;28;20102;-83
2021/07/12 02:31:39;;;;;;;3.40;1.50;;;;;;;;;;5003988;28;20487;-83
2021/07/12 02:34:05;;;;;;;2.38;1.55;;;;;;;;;;5003663;28;20128;-83
2021/07/12 02:36:30;;;;;;;2.45;1.52;;;;;;;;;;5003542;28;20117;-83
2021/07/12 02:38:56;;;;;;;2.20;1.33;;;;;;;;;;5003446;28;20029;-84
2021/07/12 02:41:22;;;;;;;2.13;1.52;;;;;;;;;;5003764;28;20025;-84
2021/07/12 02:43:48;;;;;;;2.53;1.58;;;;;;;;;;5004269;28;20067;-84
2021/07/12 02:46:14;;;;;;;3.78;1.67;;;;;;;;;;5003865;28;20060;-83
2021/07/12 02:48:41;;;;;;;2.58;1.85;;;;;;;;;;5003511;28;20112;-83
2021/07/12 02:51:10;;;;;;;3.50;1.38;;;;;;;;;;5016889;28;20026;-85
2021/07/12 02:53:38;;;;;;;2.88;1.70;;;;;;;;;;4999992;28;20034;-86
2021/07/12 02:56:04;;;;;;;2.60;1.80;;;;;;;;;;4983159;28;20030;-85
2021/07/12 02:58:30;;;;;;;2.90;1.50;;;;;;;;;;4981423;28;20033;-85
2021/07/12 03:00:58;;;;;;;3.25;1.40;;;;;;;;;;4997541;28;20022;-84
2021/07/12 03:03:24;;;;;;;2.90;1.17;;;;;;;;;;5011066;28;20062;-84
2021/07/12 03:05:51;;;;;;;3.05;1.52;;;;;;;;;;4997086;28;20092;-83
2021/07/12 03:08:26;;;;;;;2.42;1.40;;;;;;;;;;4997145;28;20120;-84
2021/07/12 03:10:54;;;;;;;2.10;1.25;;;;;;;;;;4997316;28;20022;-83
2021/07/12 03:13:41;;;;;;;3.20;1.27;;;;;;;;;;4997302;28;20045;-83
2021/07/12 03:16:06;;;;;;;2.42;1.30;;;;;;;;;;5015881;28;20033;-84
2021/07/12 03:18:38;;;;;;;2.13;1.27;;;;;;;;;;4996581;28;20069;-83
2021/07/12 03:21:04;;;;;;;2.33;1.30;;;;;;;;;;4997414;28;20026;-83
2021/07/12 03:23:35;;;;;;;1.30;1.00;;;;;;;;;;4997276;28;20120;-83
2021/07/12 03:26:02;;;;;;;2.35;1.00;;;;;;;;;;4997050;28;20121;-83
2021/07/12 03:28:27;;;;;;;2.05;1.30;;;;;;;;;;4996801;28;20102;-84
2021/07/12 03:30:53;;;;;;;2.45;1.30;;;;;;;;;;4996338;28;20026;-83
2021/07/12 03:33:20;;;;;;;1.35;0.85;;;;;;;;;;4996220;28;20124;-83
2021/07/12 03:35:47;;;;;;;2.28;1.48;;;;;;;;;;5013083;28;20056;-83
2021/07/12 03:38:17;;;;;;;2.53;1.17;;;;;;;;;;4996169;28;20037;-83
2021/07/12 03:40:43;;;;;;;1.48;0.95;;;;;;;;;;5013163;28;20136;-83
2021/07/12 03:43:10;;;;;;;2.35;1.10;;;;;;;;;;5012862;28;20029;-83
2021/07/12 03:45:38;;;;;;;1.90;1.20;;;;;;;;;;4984044;28;20045;-84
2021/07/12 03:48:04;;;;;;;3.58;1.33;;;;;;;;;;5012264;28;20053;-84
2021/07/12 03:50:31;;;;;;;1.60;0.98;;;;;;;;;;4994629;28;20037;-83
2021/07/12 03:53:00;;;;;;;2.53;1.15;;;;;;;;;;5015870;28;20037;-84
2021/07/12 03:55:27;;;;;;;1.80;1.10;;;;;;;;;;5000282;28;20063;-84
2021/07/12 03:57:52;;;;;;;3.55;1.40;;;;;;;;;;5016037;28;20032;-84
2021/07/12 04:00:22;;;;;;;2.22;1.52;;;;;;;;;;4999206;28;20029;-83
2021/07/12 04:02:48;;;;;;;2.08;1.08;;;;;;;;;;4999110;28;20034;-83
2021/07/12 04:05:16;;;;;;;1.88;1.23;;;;;;;;;;4999474;28;20040;-85
2021/07/12 04:07:41;;;;;;;2.42;1.20;;;;;;;;;;4999368;28;20090;-83
2021/07/12 04:10:11;;;;;;;2.38;1.17;;;;;;;;;;4999667;28;20037;-83
2021/07/12 04:12:41;;;;;;;2.75;1.15;;;;;;;;;;5000355;28;20074;-83
2021/07/12 04:15:07;;;;;;;2.75;1.17;;;;;;;;;;4999637;28;20091;-83
2021/07/12 04:17:33;;;;;;;1.60;1.10;;;;;;;;;;4982594;28;20029;-83
2021/07/12 04:20:00;;;;;;;2.38;0.98;;;;;;;;;;4999386;28;20066;-83
2021/07/12 04:22:26;;;;;;;1.75;1.10;;;;;;;;;;4999117;28;20030;-83
2021/07/12 04:24:53;;;;;;;1.52;1.00;;;;;;;;;;4999078;28;20031;-83
2021/07/12 04:27:19;;;;;;;2.70;1.05;;;;;;;;;;4982904;28;20078;-83
2021/07/12 04:29:45;;;;;;;1.73;1.02;;;;;;;;;;4998788;28;20026;-83
2021/07/12 04:32:11;;;;;;;2.03;1.00;;;;;;;;;;4998825;28;20029;-83
2021/07/12 04:34:37;;;;;;;2.30;1.08;;;;;;;;;;4998970;28;20037;-83
2021/07/12 04:37:03;;;;;;;2.35;1.10;;;;;;;;;;4999076;28;20124;-83
2021/07/12 04:39:29;;;;;;;1.83;1.15;;;;;;;;;;4982409;28;20109;-83
2021/07/12 04:41:54;;;;;;;1.60;1.00;;;;;;;;;;4986052;28;20191;-83
2021/07/12 04:44:21;;;;;;;1.88;1.23;;;;;;;;;;4980956;28;20483;-83
2021/07/12 04:46:47;;;;;;;3.00;1.25;;;;;;;;;;4995335;28;20124;-83
2021/07/12 04:49:13;;;;;;;1.27;0.82;;;;;;;;;;5015085;28;20538;-83
2021/07/12 04:51:39;;;;;;;1.90;1.00;;;;;;;;;;4998447;28;20044;-83
2021/07/12 04:54:04;;;;;;;1.75;1.08;;;;;;;;;;4998659;28;20037;-83
2021/07/12 04:56:31;;;;;;;1.25;0.77;;;;;;;;;;5014874;28;20034;-83
2021/07/12 04:58:59;;;;;;;2.65;1.23;;;;;;;;;;4982055;28;20471;-83
2021/07/12 05:01:27;;;;;;;2.78;1.17;;;;;;;;;;4982171;28;20021;-83
2021/07/12 05:03:52;;;;;;;2.10;1.00;;;;;;;;;;4999420;28;20033;-83
2021/07/12 05:06:18;;;;;;;2.58;1.00;;;;;;;;;;4998423;28;20025;-83
2021/07/12 05:08:45;;;;;;;2.50;1.20;;;;;;;;;;4981573;28;20053;-83
2021/07/12 05:11:10;;;;;;;2.40;1.17;;;;;;;;;;4982087;28;20095;-83
2021/07/12 05:13:37;;;;;;;1.42;0.90;;;;;;;;;;4998351;28;20108;-84
2021/07/12 05:16:02;;;;;;;1.20;0.88;;;;;;;;;;4982396;28;20029;-83
2021/07/12 05:18:28;;;;;;;1.40;1.10;;;;;;;;;;4997852;28;20132;-83
2021/07/12 05:20:56;;;;;;;2.20;0.75;;;;;;;;;;4982109;28;20033;-86
2021/07/12 05:23:23;;;;;;;1.83;1.05;;;;;;;;;;4983398;28;20030;-86
2021/07/12 05:25:50;;;;;;;1.73;1.10;;;;;;;;;;4982753;28;20030;-87
2021/07/12 05:28:16;;;;;;;2.35;1.05;;;;;;;;;;4998859;28;20033;-87
2021/07/12 05:30:41;;;;;;;2.88;1.27;;;;;;;;;;4983107;28;20027;-87
2021/07/12 05:33:10;;;;;;;2.30;1.10;;;;;;;;;;4982571;28;20136;-87
2021/07/12 05:35:37;;;;;;;1.10;0.82;;;;;;;;;;4979425;28;20099;-87
2021/07/12 05:38:04;;;;;;;3.35;1.10;;;;;;;;;;4995608;28;20156;-89
2021/07/12 05:40:31;;;;;;;5.60;1.42;;;;;;;;;;4979168;28;20034;-86
2021/07/12 05:42:58;;;;;;;3.92;1.27;;;;;;;;;;4996823;28;20060;-88
2021/07/12 05:45:26;;;;;;;4.07;2.22;;;;;;;;;;4983042;28;20037;-88
2021/07/12 05:47:52;;;;;;;11.02;3.70;;;;;;;;;;4998957;28;20037;-88
2021/07/12 05:50:21;;;;;;;7.50;3.30;;;;;;;;;;5013093;28;20021;-88
2021/07/12 05:52:49;;;;;;;6.18;3.10;;;;;;;;;;5015520;28;20041;-88
2021/07/12 05:55:15;;;;;;;4.53;2.97;;;;;;;;;;5015350;28;20440;-88
2021/07/12 05:57:41;;;;;;;6.88;3.00;;;;;;;;;;5014980;28;20124;-88
2021/07/12 06:00:08;;;;;;;6.03;3.05;;;;;;;;;;5015120;28;20040;-87
2021/07/12 06:02:34;;;;;;;4.57;3.38;;;;;;;;;;4994902;28;20107;-89
2021/07/12 06:05:00;;;;;;;3.85;2.80;;;;;;;;;;5011387;28;20515;-87
2021/07/12 06:07:25;;;;;;;7.63;3.33;;;;;;;;;;4994930;28;20034;-88
2021/07/12 06:09:52;;;;;;;12.00;3.05;;;;;;;;;;4995401;28;20041;-88
2021/07/12 06:12:19;;;;;;;4.43;2.38;;;;;;;;;;4995113;28;20029;-89
2021/07/12 06:14:46;;;;;;;4.45;2.30;;;;;;;;;;5011986;28;20033;-89
2021/07/12 06:17:13;;;;;;;5.15;2.40;;;;;;;;;;4995657;28;20566;-88
2021/07/12 06:19:39;;;;;;;4.18;2.53;;;;;;;;;;4995287;28;20559;-89
2021/07/12 06:22:05;;;;;;;4.10;2.03;;;;;;;;;;5012074;28;20030;-88
2021/07/12 06:24:30;;;;;;;6.95;1.90;;;;;;;;;;4995996;28;20022;-88
2021/07/12 06:26:56;;;;;;;4.38;1.90;;;;;;;;;;4980410;28;20514;-89
2021/07/12 06:29:22;;;;;;;3.97;1.80;;;;;;;;;;4994367;28;20025;-90
2021/07/12 06:31:48;;;;;;;11.68;1.90;;;;;;;;;;5013243;28;20061;-88
2021/07/12 06:34:15;;;;;;;7.80;2.10;;;;;;;;;;5015101;28;20072;-88
2021/07/12 06:36:40;;;;;;;3.55;1.50;;;;;;;;;;5018088;28;20029;-87
2021/07/12 06:39:05;;;;;;;4.00;1.60;;;;;;;;;;5001699;28;20027;-87
2021/07/12 06:41:34;;;;;;;4.68;1.63;;;;;;;;;;4985391;28;20029;-87
2021/07/12 06:43:59;;;;;;;6.20;1.45;;;;;;;;;;5001258;28;20036;-87
2021/07/12 06:46:25;;;;;;;3.90;1.52;;;;;;;;;;5001652;28;20124;-87
2021/07/12 06:48:57;;;;;;;4.45;1.27;;;;;;;;;;4985551;28;20116;-87
2021/07/12 06:51:34;;;;;;;2.58;1.40;;;;;;;;;;5002109;28;20025;-86
2021/07/12 06:54:02;;;;;;;3.00;1.30;;;;;;;;;;5001666;28;20042;-87
2021/07/12 06:56:28;;;;;;;2.85;1.30;;;;;;;;;;5001639;28;20034;-87
2021/07/12 06:58:54;;;;;;;2.50;1.48;;;;;;;;;;5000757;28;20116;-84
2021/07/12 07:01:19;;;;;;;2.30;1.23;;;;;;;;;;5002677;28;20117;-88
2021/07/12 07:03:45;;;;;;;2.70;1.30;;;;;;;;;;4985464;28;20029;-87
2021/07/12 07:06:14;;;;;;;3.42;1.13;;;;;;;;;;4983909;28;20439;-89
2021/07/12 07:08:41;;;;;;;2.65;1.67;;;;;;;;;;4985317;28;20430;-90
2021/07/12 07:11:09;;;;;;;2.20;1.05;;;;;;;;;;5001905;28;20100;-87
2021/07/12 07:13:36;;;;;;;2.35;1.35;;;;;;;;;;5001360;28;20033;-87
2021/07/12 07:16:04;;;;;;;2.38;1.23;;;;;;;;;;5001252;28;20080;-87
2021/07/12 07:18:32;;;;;;;4.15;1.45;;;;;;;;;;4970942;28;20029;-88
2021/07/12 07:20:58;;;;;;;3.35;1.10;;;;;;;;;;5003780;28;20128;-88
2021/07/12 07:23:25;;;;;;;2.20;1.50;;;;;;;;;;5000397;28;20018;-88
2021/07/12 07:25:53;;;;;;;2.33;1.30;;;;;;;;;;4984937;28;20471;-88
2021/07/12 07:28:18;;;;;;;2.13;1.08;;;;;;;;;;5000571;28;20510;-88
2021/07/12 07:30:46;;;;;;;2.20;1.27;;;;;;;;;;5000767;28;20033;-87
2021/07/12 07:33:12;;;;;;;3.22;1.63;;;;;;;;;;5016613;28;20036;-87
2021/07/12 07:35:38;;;;;;;1.67;1.23;;;;;;;;;;5000425;28;20395;-87
2021/07/12 07:38:03;;;;;;;1.58;0.95;;;;;;;;;;4984205;28;20034;-86
2021/07/12 07:40:31;;;;;;;3.13;1.30;;;;;;;;;;4984379;28;20037;-87
2021/07/12 07:42:59;;;;;;;3.95;1.38;;;;;;;;;;4999601;28;20029;-86
2021/07/12 07:45:26;;;;;;;1.85;1.02;;;;;;;;;;5017063;28;20113;-87
2021/07/12 07:47:53;;;;;;;2.38;1.35;;;;;;;;;;5000834;28;20067;-87
2021/07/12 07:50:19;;;;;;;3.05;1.10;;;;;;;;;;5000337;28;20026;-87
2021/07/12 07:52:46;;;;;;;2.97;1.40;;;;;;;;;;5000238;28;20450;-87
2021/07/12 07:55:19;;;;;;;3.28;1.50;;;;;;;;;;4997147;28;20033;-87
2021/07/12 07:57:45;;;;;;;2.55;1.40;;;;;;;;;;4997350;28;20480;-86
2021/07/12 08:00:17;;;;;;;2.50;1.25;;;;;;;;;;5012981;28;20065;-86
2021/07/12 08:02:46;;;;;;;2.40;1.40;;;;;;;;;;5032467;28;20029;-87
2021/07/12 08:05:11;;;;;;;2.30;1.27;;;;;;;;;;4999931;28;20072;-86
2021/07/12 08:07:39;;;;;;;2.63;1.42;;;;;;;;;;5016300;28;20068;-87
2021/07/12 08:10:06;;;;;;;3.22;1.27;;;;;;;;;;5015827;28;20541;-84
2021/07/12 08:12:32;;;;;;;1.50;1.10;;;;;;;;;;5016357;28;20040;-86
2021/07/12 08:14:58;;;;;;;2.47;1.45;;;;;;;;;;4983916;28;20041;-87
2021/07/12 08:17:24;;;;;;;2.50;1.58;;;;;;;;;;4983934;28;20021;-86
2021/07/12 08:19:50;;;;;;;1.95;1.30;;;;;;;;;;5000185;28;20043;-85
2021/07/12 08:22:16;;;;;;;2.83;1.20;;;;;;;;;;4983391;28;20030;-86
2021/07/12 08:24:42;;;;;;;3.45;1.75;;;;;;;;;;4999433;28;20120;-86
2021/07/12 08:27:09;;;;;;;2.20;1.38;;;;;;;;;;4999794;28;20030;-86
2021/07/12 08:29:34;;;;;;;2.17;1.20;;;;;;;;;;5016294;28;20045;-86
2021/07/12 08:32:01;;;;;;;2.08;1.25;;;;;;;;;;4999416;28;20163;-86
2021/07/12 08:34:27;;;;;;;2.92;1.40;;;;;;;;;;4999678;28;20059;-85
2021/07/12 08:36:54;;;;;;;2.15;1.60;;;;;;;;;;5015507;28;20112;-85
2021/07/12 08:39:20;;;;;;;2.70;1.52;;;;;;;;;;5015638;28;20391;-86
2021/07/12 08:41:46;;;;;;;2.28;1.42;;;;;;;;;;5015994;28;20124;-86
2021/07/12 08:44:13;;;;;;;4.43;2.00;;;;;;;;;;5012019;28;20491;-85
2021/07/12 08:46:38;;;;;;;3.35;1.70;;;;;;;;;;4996110;28;20049;-86
2021/07/12 08:49:04;;;;;;;3.53;1.67;;;;;;;;;;4998950;28;20204;-87
2021/07/12 08:51:29;;;;;;;2.47;1.50;;;;;;;;;;4982963;28;20022;-86
2021/07/12 08:53:55;;;;;;;2.92;1.77;;;;;;;;;;4995674;28;20034;-86
2021/07/12 08:56:21;;;;;;;4.35;1.67;;;;;;;;;;4979564;28;20124;-86
2021/07/12 08:58:48;;;;;;;4.03;1.45;;;;;;;;;;4995347;28;20502;-85
2021/07/12 09:01:14;;;;;;;2.35;1.42;;;;;;;;;;5005105;28;20021;-86
2021/07/12 09:03:40;;;;;;;2.53;1.50;;;;;;;;;;4981490;28;20042;-85
2021/07/12 09:06:06;;;;;;;2.50;1.70;;;;;;;;;;4981768;28;20029;-85
2021/07/12 09:08:53;;;;;;;3.35;1.48;;;;;;;;;;5014156;28;20037;-84
2021/07/12 09:11:32;;;;;;;3.63;1.40;;;;;;;;;;5000637;28;20033;-85
2021/07/12 09:14:18;;;;;;;4.90;1.55;;;;;;;;;;4982266;28;20045;-85
2021/07/12 09:16:54;;;;;;;2.53;1.33;;;;;;;;;;4998410;28;20084;-85
2021/07/12 09:19:28;;;;;;;2.70;1.20;;;;;;;;;;4998797;28;20395;-85
2021/07/12 09:21:55;;;;;;;2.60;1.08;;;;;;;;;;5014482;28;20052;-85
2021/07/12 09:24:42;;;;;;;3.22;1.60;;;;;;;;;;4998020;28;20030;-86
2021/07/12 09:27:19;;;;;;;3.08;1.50;;;;;;;;;;5014761;28;20129;-86
2021/07/12 09:29:49;;;;;;;2.78;1.40;;;;;;;;;;4982817;28;20033;-86
2021/07/12 09:32:17;;;;;;;2.03;1.10;;;;;;;;;;4982098;28;20029;-84
2021/07/12 09:34:46;;;;;;;3.00;1.20;;;;;;;;;;4981928;28;20025;-86
2021/07/12 09:37:13;;;;;;;3.65;1.70;;;;;;;;;;4982811;28;20087;-86
2021/07/12 09:39:43;;;;;;;4.82;1.70;;;;;;;;;;4981723;28;20471;-85
2021/07/12 09:42:13;;;;;;;3.38;1.05;;;;;;;;;;4998420;28;20032;-86
2021/07/12 09:44:40;;;;;;;2.78;1.35;;;;;;;;;;4998554;28;20054;-85
2021/07/12 09:47:12;;;;;;;2.72;1.00;;;;;;;;;;4998356;28;20107;-86
2021/07/12 09:49:37;;;;;;;1.88;1.02;;;;;;;;;;4981894;28;20429;-85
2021/07/12 09:52:06;;;;;;;2.78;1.08;;;;;;;;;;4982291;28;20037;-85
2021/07/12 09:54:37;;;;;;;2.60;1.20;;;;;;;;;;4978414;28;20045;-86
2021/07/12 09:57:08;;;;;;;2.10;1.40;;;;;;;;;;5011395;28;20030;-85
2021/07/12 09:59:35;;;;;;;1.60;1.10;;;;;;;;;;5010538;28;20056;-85
2021/07/12 10:02:01;;;;;;;1.23;0.82;;;;;;;;;;5014342;28;20036;-85
2021/07/12 10:04:26;;;;;;;2.03;0.93;;;;;;;;;;5030351;28;20029;-84
2021/07/12 10:06:53;;;;;;;3.00;1.02;;;;;;;;;;5017234;28;20021;-85
2021/07/12 10:09:23;;;;;;;2.50;1.15;;;;;;;;;;5034677;28;20056;-85
2021/07/12 10:11:53;;;;;;;2.10;1.10;;;;;;;;;;5035128;28;20029;-85
2021/07/12 10:14:21;;;;;;;1.65;1.00;;;;;;;;;;5018171;28;20034;-85
2021/07/12 10:16:49;;;;;;;1.73;1.00;;;;;;;;;;5001997;28;20394;-85
2021/07/12 10:19:16;;;;;;;2.72;1.10;;;;;;;;;;5017984;28;20034;-85
2021/07/12 10:21:46;;;;;;;1.63;0.90;;;;;;;;;;5017835;28;20078;-84
2021/07/12 10:24:12;;;;;;;1.13;0.77;;;;;;;;;;5034347;28;20558;-85
2021/07/12 10:26:49;;;;;;;1.40;0.95;;;;;;;;;;5017917;28;20527;-85
2021/07/12 10:29:17;;;;;;;1.70;0.95;;;;;;;;;;5001661;28;20025;-85
2021/07/12 10:32:04;;;;;;;2.15;1.13;;;;;;;;;;5001389;28;20029;-85
2021/07/12 10:34:41;;;;;;;1.92;1.00;;;;;;;;;;5014188;28;20032;-84
2021/07/12 10:37:15;;;;;;;1.58;1.02;;;;;;;;;;5014276;28;20061;-85
2021/07/12 10:40:08;;;;;;;;;;;;;;;;;;5013912;28;20034;-84
2021/07/12 10:42:43;;;;;;;1.73;1.17;;;;;;;;;;5013569;28;19913;-85
2021/07/12 10:45:20;;;;;;;1.92;1.08;;;;;;;;;;5042667;28;20083;-84
2021/07/12 10:48:06;;;;;;;1.85;1.02;;;;;;;;;;5034765;28;20033;-84
2021/07/12 10:50:51;;;;;;;2.75;0.88;;;;;;;;;;5014008;28;20503;-84
2021/07/12 10:53:20;;;;;;;1.60;0.93;;;;;;;;;;4997558;28;20029;-84
2021/07/12 10:56:08;;;;;;;1.83;1.10;;;;;;;;;;5013956;28;20527;-84
2021/07/12 10:58:35;;;;;;;1.15;0.90;;;;;;;;;;4997877;28;20034;-84
2021/07/12 11:01:04;;;;;;;0.88;0.60;;;;;;;;;;5013658;28;20022;-84
2021/07/12 11:03:40;;;;;;;2.20;1.00;;;;;;;;;;5015692;28;20021;-83
2021/07/12 11:06:27;;;;;;;1.88;0.80;;;;;;;;;;4985002;28;20491;-85
2021/07/12 11:08:57;;;;;;;1.13;0.70;;;;;;;;;;4985130;28;20056;-84
2021/07/12 11:11:23;;;;;;;1.73;1.05;;;;;;;;;;5000864;28;20064;-84
2021/07/12 11:14:05;;;;;;;1.85;0.80;;;;;;;;;;5033238;28;20096;-83
2021/07/12 11:16:41;;;;;;;1.30;0.88;;;;;;;;;;4985833;28;20086;-85
2021/07/12 11:19:33;;;;;;;1.42;0.65;;;;;;;;;;4984027;28;20459;-85
2021/07/12 11:22:15;;;;;;;1.20;0.95;;;;;;;;;;4986408;28;20074;-85
2021/07/12 11:25:15;;;;;;;2.25;0.80;;;;;;;;;;5032846;28;20111;-84
2021/07/12 11:27:42;;;;;;;2.25;0.98;;;;;;;;;;4989562;28;20172;-84
2021/07/12 11:30:29;;;;;;;2.97;1.08;;;;;;;;;;5015568;28;20061;-84
2021/07/12 11:32:56;;;;;;;1.90;1.15;;;;;;;;;;5016568;28;20120;-84
2021/07/12 11:35:31;;;;;;;1.42;0.90;;;;;;;;;;5000411;28;20033;-84
2021/07/12 11:38:00;;;;;;;2.45;1.00;;;;;;;;;;5002268;28;20041;-85
2021/07/12 11:40:27;;;;;;;1.30;0.65;;;;;;;;;;5000481;28;20035;-84
2021/07/12 11:42:53;;;;;;;2.00;0.80;;;;;;;;;;4999850;28;20027;-85
2021/07/12 11:45:19;;;;;;;1.02;0.70;;;;;;;;;;4999339;28;20079;-84
2021/07/12 11:47:46;;;;;;;1.52;0.80;;;;;;;;;;4983652;28;20033;-84
2021/07/12 11:50:15;;;;;;;5.55;3.60;;;;;;;;;;4983448;28;20033;-83
2021/07/12 11:52:46;;;;;;;2.72;2.00;;;;;;;;;;5015814;28;20037;-84
2021/07/12 11:55:14;;;;;;;21.50;17.15;;;;;;;;;;4999288;28;20305;-84
2021/07/12 11:57:40;;;;;;;9.20;5.75;;;;;;;;;;5015045;28;20045;-83
2021/07/12 12:00:11;;;;;;;6.72;3.63;;;;;;;;;;4997145;28;20468;-83
2021/07/12 12:02:37;;;;;;;3.88;2.47;;;;;;;;;;5015217;28;20021;-84
2021/07/12 12:05:05;;;;;;;3.55;2.10;;;;;;;;;;5015596;28;20079;-83
2021/07/12 12:07:41;;;;;;;2.95;1.60;;;;;;;;;;5031813;28;20065;-84
2021/07/12 12:10:21;;;;;;;2.20;1.23;;;;;;;;;;5015440;28;20061;-83
2021/07/12 12:12:51;;;;;;;1.92;1.58;;;;;;;;;;5011815;28;20026;-84
2021/07/12 12:15:23;;;;;;;2.90;1.73;;;;;;;;;;4999663;28;20048;-84
2021/07/12 12:17:50;;;;;;;2.97;1.58;;;;;;;;;;4983059;28;20032;-84
2021/07/12 12:20:19;;;;;;;2.17;1.20;;;;;;;;;;5015118;28;20034;-83
2021/07/12 12:23:04;;;;;;;2.97;1.40;;;;;;;;;;4994280;28;20035;-83
2021/07/12 12:25:34;;;;;;;3.67;1.30;;;;;;;;;;5015246;28;20029;-84
2021/07/12 12:28:01;;;;;;;2.75;1.10;;;;;;;;;;4998685;28;20144;-84
2021/07/12 12:30:26;;;;;;;4.28;1.67;;;;;;;;;;4999113;28;20025;-83
2021/07/12 12:32:56;;;;;;;3.13;1.40;;;;;;;;;;4982725;28;20390;-84
2021/07/12 12:35:24;;;;;;;3.22;1.45;;;;;;;;;;4982766;28;20034;-84
2021/07/12 12:37:52;;;;;;;1.73;1.20;;;;;;;;;;4999051;28;20033;-84
2021/07/12 12:40:22;;;;;;;3.42;1.30;;;;;;;;;;4995927;28;20037;-84
2021/07/12 12:42:48;;;;;;;2.17;1.35;;;;;;;;;;5027887;28;20038;-84
2021/07/12 12:45:30;;;;;;;2.10;1.38;;;;;;;;;;5004411;28;20030;-83
2021/07/12 12:48:06;;;;;;;2.70;1.75;;;;;;;;;;4978898;28;20047;-84
2021/07/12 12:50:37;;;;;;;2.55;1.30;;;;;;;;;;4998367;28;20061;-84
2021/07/12 12:53:06;;;;;;;3.85;1.90;;;;;;;;;;5012763;28;20084;-83
2021/07/12 12:55:33;;;;;;;2.90;1.58;;;;;;;;;;5016024;23;20079;-84
2021/07/12 12:58:09;;;;;;;3.33;1.60;;;;;;;;;;5050239;28;20017;-85
2021/07/12 13:00:36;;;;;;;1.88;1.20;;;;;;;;;;5023436;28;20407;-85
2021/07/12 13:03:02;;;;;;;2.47;1.45;;;;;;;;;;5013468;28;20108;-85
2021/07/12 13:05:27;;;;;;;1.98;1.17;;;;;;;;;;5035761;28;20124;-85
2021/07/12 13:07:54;;;;;;;3.28;1.35;;;;;;;;;;5011405;28;20025;-85
2021/07/12 13:10:27;;;;;;;1.73;1.10;;;;;;;;;;5001945;28;20043;-85
2021/07/12 13:12:53;;;;;;;2.47;1.30;;;;;;;;;;5017585;28;20103;-85
2021/07/12 13:15:31;;;;;;;2.30;1.15;;;;;;;;;;5017624;28;20479;-85
2021/07/12 13:17:58;;;;;;;2.85;1.38;;;;;;;;;;5019363;28;20087;-85
2021/07/12 13:20:28;;;;;;;2.40;1.50;;;;;;;;;;5034012;28;20037;-86
2021/07/12 13:22:55;;;;;;;4.03;1.40;;;;;;;;;;5015507;28;20029;-86
2021/07/12 13:25:24;;;;;;;2.58;1.42;;;;;;;;;;5046954;28;20052;-86
2021/07/12 13:27:57;;;;;;;1.90;1.10;;;;;;;;;;5001709;28;20087;-85
2021/07/12 13:30:26;;;;;;;3.78;1.77;;;;;;;;;;5018036;28;20056;-86
2021/07/12 13:32:53;;;;;;;3.00;1.50;;;;;;;;;;5001955;28;20029;-86
2021/07/12 13:35:23;;;;;;;2.50;1.17;;;;;;;;;;5003447;28;20048;-85
2021/07/12 13:37:50;;;;;;;3.20;1.20;;;;;;;;;;5033930;28;20037;-83
2021/07/12 13:40:15;;;;;;;2.10;1.05;;;;;;;;;;5032866;28;20124;-83
2021/07/12 13:42:43;;;;;;;1.80;1.17;;;;;;;;;;5050566;28;20508;-82
2021/07/12 13:45:09;;;;;;;2.25;0.77;;;;;;;;;;5023854;28;20033;-83
2021/07/12 13:47:34;;;;;;;2.03;0.82;;;;;;;;;;5017759;28;20055;-82
2021/07/12 13:50:00;;;;;;;2.55;1.17;;;;;;;;;;5001443;28;20124;-83
2021/07/12 13:52:26;;;;;;;3.17;1.00;;;;;;;;;;5000028;28;20048;-83
2021/07/12 13:54:52;;;;;;;4.50;0.95;;;;;;;;;;5016689;28;20040;-83
2021/07/12 13:57:20;;;;;;;1.73;0.93;;;;;;;;;;5001170;28;20025;-83
2021/07/12 13:59:46;;;;;;;1.50;0.88;;;;;;;;;;5001286;28;20064;-83
2021/07/12 14:02:16;;;;;;;2.30;1.15;;;;;;;;;;4997294;28;20033;-84
2021/07/12 14:04:41;;;;;;;3.47;1.10;;;;;;;;;;5013887;28;20478;-82
2021/07/12 14:07:07;;;;;;;1.70;0.90;;;;;;;;;;5014006;28;20100;-83
2021/07/12 14:09:33;;;;;;;1.60;1.00;;;;;;;;;;5013458;28;20522;-83
2021/07/12 14:12:01;;;;;;;2.97;1.00;;;;;;;;;;5014121;28;20128;-83
2021/07/12 14:14:27;;;;;;;2.13;0.93;;;;;;;;;;5013977;28;20029;-83
2021/07/12 14:16:54;;;;;;;1.90;1.00;;;;;;;;;;5030489;28;20025;-84
2021/07/12 14:19:19;;;;;;;2.22;0.80;;;;;;;;;;5014201;28;20033;-83
2021/07/12 14:21:46;;;;;;;2.22;1.10;;;;;;;;;;5013997;28;20026;-83
2021/07/12 14:24:11;;;;;;;2.80;1.10;;;;;;;;;;5029946;28;20041;-83
2021/07/12 14:26:38;;;;;;;1.77;1.08;;;;;;;;;;5033890;28;20086;-83
2021/07/12 14:29:04;;;;;;;1.77;0.80;;;;;;;;;;5027005;28;20399;-86
2021/07/12 14:31:33;;;;;;;3.10;0.93;;;;;;;;;;5017833;28;20040;-86
2021/07/12 14:34:02;;;;;;;3.35;1.15;;;;;;;;;;5034539;28;20025;-87
2021/07/12 14:36:31;;;;;;;3.13;1.00;;;;;;;;;;5017706;28;20479;-86
2021/07/12 14:38:59;;;;;;;1.70;0.90;;;;;;;;;;5018006;28;20399;-87
2021/07/12 14:41:26;;;;;;;5.57;3.92;;;;;;;;;;5001907;28;20041;-86
2021/07/12 14:43:51;;;;;;;10.73;7.00;;;;;;;;;;5001306;28;20032;-86
2021/07/12 14:46:19;;;;;;;8.68;6.40;;;;;;;;;;5001489;28;20029;-86
2021/07/12 14:48:45;;;;;;;10.05;6.63;;;;;;;;;;5001207;28;20116;-86
2021/07/12 14:51:11;;;;;;;7.82;5.18;;;;;;;;;;5018139;28;20044;-87
2021/07/12 14:53:37;;;;;;;6.00;3.92;;;;;;;;;;4991110;28;20029;-86
2021/07/12 14:56:02;;;;;;;4.53;2.70;;;;;;;;;;5008603;28;20048;-86